Aviation Digital Data Service (ADDS)

Output produced by TAFs form (0220 UTC 18 January 2018)
found at http://www.aviationweather.gov/adds/tafs/
 
KILM 180214Z AUTO 34011KT 5SM BR BKN013 OVC018 03/02 A3012 RMK AO2 RAE12 P0000 T00330022
KILM 180021Z 1800/1824 34008KT 6SM -RA OVC050 
     FM180100 34010KT 2SM -RA BR SCT006 OVC012 
     FM180200 32006KT 6SM BR BKN006 OVC012 
     FM180500 35010G18KT P6SM SCT006 OVC015 
     TEMPO 1805/1808 3SM -SN 
     FM180800 35012G20KT P6SM SCT015 BKN050 
     FM181000 34012KT P6SM SCT050 
     FM181200 33010KT P6SM SKC